Time;durP1;ratioP1;P1;durP2;ratioP2;P2;SDS_P1;SDS_P2;PMS_P1;PMS_P2;Temp;Humidity;BMP_temperature;BMP_pressure;BME280_temperature;BME280_humidity;BME280_pressure;Samples;Min_cycle;Max_cycle;Signal;HPM_P1;HPM_P2
2021/07/13 00:01:40;;;;;;;41.42;34.08;;;;;;;19.16;97.17;100472.09;4944994;29;20102;-87
2021/07/13 00:04:07;;;;;;;42.33;35.40;;;;;;;19.17;98.53;100471.03;4948560;28;20047;-83
2021/07/13 00:06:32;;;;;;;41.33;35.35;;;;;;;19.16;98.48;100472.09;4950944;28;20050;-84
2021/07/13 00:08:58;;;;;;;41.85;35.55;;;;;;;19.17;98.07;100468.31;4949436;28;20047;-87
2021/07/13 00:11:24;;;;;;;42.40;34.97;;;;;;;19.13;99.14;100458.94;4950481;28;20069;-86
2021/07/13 00:13:49;;;;;;;43.95;34.92;;;;;;;19.11;98.70;100458.34;4947822;28;20482;-85
2021/07/13 00:16:16;;;;;;;46.50;36.97;;;;;;;19.12;99.88;100461.88;4936234;28;20130;-84
2021/07/13 00:18:41;;;;;;;42.92;36.38;;;;;;;19.10;98.50;100467.56;4950151;28;20047;-84
2021/07/13 00:21:07;;;;;;;44.72;37.47;;;;;;;19.14;98.87;100473.38;4936679;28;20462;-84
2021/07/13 00:23:37;;;;;;;44.33;36.28;;;;;;;19.13;99.02;100472.56;4949937;28;20058;-85
2021/07/13 00:26:02;;;;;;;;;;;;;;;19.13;99.25;100477.13;4948183;28;20047;-86
2021/07/13 00:28:28;;;;;;;45.53;35.97;;;;;;;19.07;99.86;100472.63;4948161;28;19925;-83
2021/07/13 00:30:53;;;;;;;45.10;36.42;;;;;;;19.07;100.00;100475.34;4949271;28;20122;-86
2021/07/13 00:33:18;;;;;;;46.13;37.65;;;;;;;19.08;100.00;100469.69;4949872;28;20138;-86
2021/07/13 00:35:44;;;;;;;48.90;38.05;;;;;;;19.08;100.00;100469.69;4950158;28;20048;-87
2021/07/13 00:38:09;;;;;;;45.13;37.70;;;;;;;19.07;100.00;100469.91;4947436;28;30283;-84
2021/07/13 00:40:35;;;;;;;44.88;38.42;;;;;;;19.07;99.52;100464.47;4936605;29;20039;-84
2021/07/13 00:43:00;;;;;;;48.22;38.80;;;;;;;19.06;100.00;100469.06;4939301;28;20036;-84
2021/07/13 00:45:26;;;;;;;47.78;36.78;;;;;;;19.09;100.00;100465.06;4949712;28;20273;-84
2021/07/13 00:47:53;;;;;;;47.67;37.80;;;;;;;19.14;100.00;100467.94;4960046;28;20051;-84
2021/07/13 00:50:21;;;;;;;46.42;37.72;;;;;;;19.09;100.00;100468.59;4944799;28;20047;-90
2021/07/13 00:52:47;;;;;;;50.42;38.65;;;;;;;19.08;100.00;100469.69;4949361;28;20054;-84
2021/07/13 00:55:13;;;;;;;46.38;37.25;;;;;;;19.11;100.00;100469.22;4943239;28;20050;-83
2021/07/13 00:57:40;;;;;;;45.80;37.38;;;;;;;19.14;100.00;100476.09;4944680;29;20067;-84
2021/07/13 01:00:08;;;;;;;50.42;38.05;;;;;;;19.09;100.00;100475.94;4942056;28;20043;-84
2021/07/13 01:02:34;;;;;;;51.08;40.22;;;;;;;19.13;100.00;100478.00;4942248;28;20043;-87
2021/07/13 01:05:01;;;;;;;45.58;38.38;;;;;;;19.19;100.00;100478.13;4945297;28;20683;-84
2021/07/13 01:07:51;;;;;;;50.22;40.75;;;;;;;19.24;100.00;100483.69;4942827;28;20339;-83
2021/07/13 01:10:42;;;;;;;46.42;38.60;;;;;;;19.22;100.00;100480.38;4940966;28;20054;-84
2021/07/13 01:13:27;;;;;;;48.85;40.60;;;;;;;19.20;100.00;100479.78;4940539;28;20098;-84
2021/07/13 01:16:00;;;;;;;50.63;40.63;;;;;;;19.19;99.58;100478.13;4944370;28;20414;-86
2021/07/13 01:18:32;;;;;;;49.47;41.58;;;;;;;19.16;100.00;100493.00;4936258;28;20490;-85
2021/07/13 01:21:13;;;;;;;48.72;40.42;;;;;;;19.18;100.00;100490.88;4942924;28;20054;-85
2021/07/13 01:24:10;;;;;;;49.35;40.42;;;;;;;19.20;100.00;100490.69;4921713;29;20134;-85
2021/07/13 01:26:49;;;;;;;51.58;40.97;;;;;;;19.19;100.00;100486.28;4943440;28;20089;-84
2021/07/13 01:29:18;;;;;;;53.20;41.05;;;;;;;19.18;100.00;100490.88;4944228;28;20105;-83
2021/07/13 01:31:46;;;;;;;51.05;39.70;;;;;;;19.20;100.00;100488.78;4944803;28;20055;-84
2021/07/13 01:34:19;;;;;;;50.60;39.60;;;;;;;19.19;100.00;100487.13;4943357;28;20131;-86
2021/07/13 01:36:50;;;;;;;52.55;41.10;;;;;;;19.23;100.00;100487.50;4943457;28;20051;-92
2021/07/13 01:39:18;;;;;;;53.38;41.53;;;;;;;19.22;100.00;100485.81;4944888;28;20515;-84
2021/07/13 01:41:48;;;;;;;48.97;40.40;;;;;;;19.25;100.00;100477.19;4944195;28;20630;-84
2021/07/13 01:44:14;;;;;;;48.30;40.08;;;;;;;19.25;100.00;100479.91;4943633;28;20051;-85
2021/07/13 01:46:41;;;;;;;52.72;41.92;;;;;;;19.25;100.00;100479.91;4943088;28;20055;-89
2021/07/13 01:49:08;;;;;;;50.70;38.58;;;;;;;19.23;100.00;100476.63;4931349;28;20132;-84
2021/07/13 01:51:35;;;;;;;53.22;42.45;;;;;;;19.24;100.00;100472.81;4925844;28;20861;-83
2021/07/13 01:54:05;;;;;;;53.08;41.85;;;;;;;19.23;100.00;100466.56;4939972;28;20055;-87
2021/07/13 01:56:32;;;;;;;53.78;43.55;;;;;;;19.21;100.00;100465.13;4944884;28;20690;-89
2021/07/13 01:59:00;;;;;;;53.35;43.35;;;;;;;19.20;100.00;100466.19;4940944;28;20397;-84
2021/07/13 02:01:26;;;;;;;53.83;43.45;;;;;;;19.17;100.00;100446.53;4942274;28;20046;-84
2021/07/13 02:03:55;;;;;;;55.28;43.92;;;;;;;19.19;100.00;100453.63;4943360;28;20154;-83
2021/07/13 02:06:24;;;;;;;55.00;43.42;;;;;;;19.17;100.00;100448.44;4942057;28;20146;-84
2021/07/13 02:08:52;;;;;;;54.83;43.28;;;;;;;19.18;100.00;100447.38;4936170;28;20060;-85
2021/07/13 02:11:18;;;;;;;58.75;45.45;;;;;;;19.15;100.00;100443.22;4944691;28;20059;-84
2021/07/13 02:13:44;;;;;;;61.03;47.95;;;;;;;19.14;100.00;100444.28;4945416;28;20039;-87
2021/07/13 02:16:10;;;;;;;60.15;46.88;;;;;;;19.12;100.00;100440.97;4943556;28;20070;-88
2021/07/13 02:18:36;;;;;;;61.60;46.17;;;;;;;19.13;100.00;100433.63;4943766;28;20062;-84
2021/07/13 02:21:02;;;;;;;60.53;46.75;;;;;;;19.09;100.00;100435.16;4940562;28;20052;-91
2021/07/13 02:23:28;;;;;;;61.58;46.38;;;;;;;19.03;100.00;100438.78;4943461;28;20043;-88
2021/07/13 02:25:57;;;;;;;64.90;47.05;;;;;;;19.01;100.00;100436.28;4942402;28;20043;-86
2021/07/13 02:28:36;;;;;;;59.42;46.85;;;;;;;19.04;100.00;100430.38;4938096;28;20490;-85
2021/07/13 02:31:15;;;;;;;63.67;48.95;;;;;;;19.03;100.00;100426.03;4930854;28;20399;-87
2021/07/13 02:34:06;;;;;;;62.42;47.38;;;;;;;19.00;100.00;100426.47;4936839;29;20142;-84
2021/07/13 02:36:35;;;;;;;66.07;50.00;;;;;;;18.97;100.00;100429.66;4911042;29;20074;-88
2021/07/13 02:39:05;;;;;;;70.78;51.38;;;;;;;18.95;100.00;100431.75;4922691;29;20518;-86
2021/07/13 02:41:31;;;;;;;65.40;50.08;;;;;;;18.94;100.00;100430.13;4923559;29;20059;-84
2021/07/13 02:43:57;;;;;;;70.55;50.05;;;;;;;18.93;100.00;100425.72;4922603;28;20623;-85
2021/07/13 02:46:27;;;;;;;67.00;49.55;;;;;;;18.87;100.00;100430.22;4922063;28;20456;-85
2021/07/13 02:48:55;;;;;;;68.22;50.75;;;;;;;18.85;100.00;100432.31;4938852;28;20142;-84
2021/07/13 02:51:23;;;;;;;69.82;52.53;;;;;;;18.84;100.00;100425.19;4938434;28;20052;-89
2021/07/13 02:53:51;;;;;;;71.73;51.23;;;;;;;18.85;100.00;100431.50;4923532;29;20127;-84
2021/07/13 02:56:20;;;;;;;69.80;50.17;;;;;;;18.81;100.00;100428.38;4932023;28;20138;-85
2021/07/13 02:58:46;;;;;;;;;;;;;;;18.81;100.00;100422.09;4927922;28;20050;-86
2021/07/13 03:01:11;;;;;;;73.22;53.72;;;;;;;18.74;100.00;100424.09;4923355;29;19930;-84
2021/07/13 03:03:41;;;;;;;76.80;55.25;;;;;;;18.75;100.00;100425.75;4936877;28;20050;-84
2021/07/13 03:06:08;;;;;;;74.22;53.80;;;;;;;18.76;100.00;100422.81;4943554;28;20148;-88
2021/07/13 03:08:34;;;;;;;76.18;55.08;;;;;;;18.81;100.00;100427.53;4938239;28;20047;-92
2021/07/13 03:11:02;;;;;;;75.93;54.17;;;;;;;18.80;100.00;100434.06;4943885;28;20063;-84
2021/07/13 03:13:28;;;;;;;75.88;53.03;;;;;;;18.81;100.00;100424.81;4948014;28;20070;-85
2021/07/13 03:15:54;;;;;;;74.22;54.15;;;;;;;18.83;100.00;100420.81;4942651;28;20051;-84
2021/07/13 03:18:21;;;;;;;76.15;53.97;;;;;;;18.84;100.00;100422.47;4948201;28;20098;-85
2021/07/13 03:20:49;;;;;;;71.57;52.05;;;;;;;18.84;100.00;100424.38;4946097;28;20054;-86
2021/07/13 03:23:17;;;;;;;80.05;56.95;;;;;;;18.83;100.00;100417.28;4946617;28;20258;-89
2021/07/13 03:25:44;;;;;;;81.93;56.85;;;;;;;18.82;100.00;100423.78;4945721;28;20134;-84
2021/07/13 03:28:16;;;;;;;77.38;54.95;;;;;;;18.78;100.00;100420.66;4939181;28;20063;-86
2021/07/13 03:30:45;;;;;;;80.90;57.10;;;;;;;18.77;100.00;100410.88;4947539;28;20156;-87
2021/07/13 03:33:12;;;;;;;84.28;59.55;;;;;;;18.77;100.00;100420.91;4944665;28;20261;-84
2021/07/13 03:35:38;;;;;;;80.70;56.72;;;;;;;18.78;100.00;100422.56;4944879;28;20462;-86
2021/07/13 03:38:05;;;;;;;84.25;56.78;;;;;;;18.78;100.00;100425.28;4942482;28;20056;-84
2021/07/13 03:40:31;;;;;;;84.47;57.60;;;;;;;18.81;100.00;100424.81;4945050;28;20043;-84
2021/07/13 03:42:57;;;;;;;77.63;57.60;;;;;;;18.82;100.00;100426.50;4946748;28;20076;-85
2021/07/13 03:45:25;;;;;;;85.13;58.83;;;;;;;18.83;100.00;100428.16;4948728;28;20054;-85
2021/07/13 03:47:52;;;;;;;85.28;58.78;;;;;;;18.84;100.00;100418.94;4950352;28;20056;-87
2021/07/13 03:50:44;;;;;;;86.65;59.00;;;;;;;18.85;100.00;100417.91;4946891;28;20142;-84
2021/07/13 03:53:13;;;;;;;89.78;61.28;;;;;;;18.82;100.00;100421.91;4954492;28;20050;-86
2021/07/13 03:55:40;;;;;;;88.03;59.70;;;;;;;18.82;100.00;100413.75;4946870;28;20039;-84
2021/07/13 03:58:05;;;;;;;87.43;58.53;;;;;;;18.83;100.00;100420.00;4942841;28;20043;-87
2021/07/13 04:00:32;;;;;;;90.03;61.40;;;;;;;18.83;100.00;100418.09;4927063;29;20066;-90
2021/07/13 04:03:00;;;;;;;86.20;58.30;;;;;;;18.80;100.00;100418.56;4923875;29;20051;-84
2021/07/13 04:05:25;;;;;;;89.85;61.58;;;;;;;18.85;100.00;100417.91;4926088;29;20380;-84
2021/07/13 04:07:51;;;;;;;86.68;60.05;;;;;;;18.85;100.00;100409.75;4927245;28;20100;-84
2021/07/13 04:10:17;;;;;;;87.43;60.53;;;;;;;18.84;100.00;100413.50;4954687;28;20058;-85
2021/07/13 04:12:43;;;;;;;88.65;59.63;;;;;;;18.87;100.00;100418.47;4954232;28;20043;-85
2021/07/13 04:15:09;;;;;;;87.00;60.65;;;;;;;18.85;100.00;100417.91;4954866;28;20061;-90
2021/07/13 04:17:35;;;;;;;86.25;60.53;;;;;;;18.87;100.00;100423.91;4949907;28;20087;-87
2021/07/13 04:20:00;;;;;;;92.97;61.47;;;;;;;18.91;100.00;100419.69;4957005;28;20043;-89
2021/07/13 04:22:26;;;;;;;85.78;58.55;;;;;;;18.87;100.00;100418.47;4952639;28;20110;-86
2021/07/13 04:24:51;;;;;;;81.13;58.03;;;;;;;18.87;100.00;100419.34;4909615;28;1088499;-85
2021/07/13 04:27:17;;;;;;;88.63;58.65;;;;;;;18.90;100.00;100418.03;4945485;28;20067;-85
2021/07/13 04:29:42;;;;;;;82.47;57.35;;;;;;;18.92;100.00;100415.91;4943529;28;20142;-86
2021/07/13 04:32:08;;;;;;;88.22;59.53;;;;;;;18.92;100.00;100426.78;4942491;28;20047;-85
2021/07/13 04:34:34;;;;;;;88.80;59.95;;;;;;;18.89;100.00;100417.19;4939683;28;20063;-84
2021/07/13 04:37:00;;;;;;;89.53;58.22;;;;;;;18.86;100.00;100416.81;4944858;28;20064;-83
2021/07/13 04:39:26;;;;;;;86.97;59.90;;;;;;;18.86;100.00;100423.09;4942888;28;20043;-87
2021/07/13 04:41:51;;;;;;;90.50;58.50;;;;;;;18.86;100.00;100420.38;4943820;28;20055;-85
2021/07/13 04:44:17;;;;;;;85.97;58.85;;;;;;;18.91;100.00;100420.53;4944147;28;20051;-88
2021/07/13 04:46:42;;;;;;;88.30;61.20;;;;;;;18.94;100.00;100411.91;4945897;28;20429;-84
2021/07/13 04:49:08;;;;;;;89.45;61.70;;;;;;;18.95;100.00;100415.44;4942720;28;20168;-83
2021/07/13 04:51:34;;;;;;;86.78;60.78;;;;;;;18.93;100.00;100415.69;4940838;28;20044;-85
2021/07/13 04:54:00;;;;;;;82.75;57.20;;;;;;;18.90;100.00;100418.03;4942121;28;20122;-85
2021/07/13 04:56:25;;;;;;;88.97;56.42;;;;;;;18.86;100.00;100422.25;4944351;28;20688;-86
2021/07/13 04:58:51;;;;;;;85.15;56.80;;;;;;;18.85;100.00;100431.50;4944875;28;20055;-83
2021/07/13 05:01:16;;;;;;;87.68;59.90;;;;;;;18.87;100.00;100432.94;4943417;28;20137;-86
2021/07/13 05:03:42;;;;;;;85.88;57.75;;;;;;;18.92;100.00;100440.38;4944274;28;20079;-88
2021/07/13 05:06:08;;;;;;;83.30;56.55;;;;;;;18.88;100.00;100436.47;4939892;28;20138;-84
2021/07/13 05:08:33;;;;;;;78.07;55.03;;;;;;;18.87;100.00;100445.66;4946489;28;20491;-90
2021/07/13 05:10:59;;;;;;;83.22;56.88;;;;;;;18.87;100.00;100445.66;4945296;28;20058;-84
2021/07/13 05:13:24;;;;;;;85.18;55.75;;;;;;;18.83;100.00;100450.72;4945415;28;20059;-85
2021/07/13 05:15:50;;;;;;;80.00;54.28;;;;;;;18.74;100.00;100451.28;4940032;28;20059;-88
2021/07/13 05:18:16;;;;;;;81.68;55.20;;;;;;;18.70;100.00;100451.69;4944198;28;20055;-84
2021/07/13 05:20:49;;;;;;;84.80;55.55;;;;;;;18.67;100.00;100463.03;4944716;29;20728;-85
2021/07/13 05:23:14;;;;;;;81.55;55.13;;;;;;;18.66;100.00;100455.06;4939651;28;20440;-87
2021/07/13 05:25:41;;;;;;;80.28;57.38;;;;;;;18.70;100.00;100472.56;4944210;28;20047;-87
2021/07/13 05:28:10;;;;;;;86.35;56.97;;;;;;;18.72;100.00;100465.88;4940110;28;20067;-88
2021/07/13 05:30:37;;;;;;;84.03;57.50;;;;;;;18.71;100.00;100474.25;4943954;28;20047;-89
2021/07/13 05:33:03;;;;;;;85.10;57.03;;;;;;;18.68;100.00;100463.84;4942776;28;20075;-90
2021/07/13 05:35:28;;;;;;;90.38;57.28;;;;;;;18.67;100.00;100470.31;4943460;28;20055;-89
2021/07/13 05:37:54;;;;;;;97.40;62.03;;;;;;;18.70;100.00;100476.16;4942197;28;20050;-89
2021/07/13 05:40:19;;;;;;;93.18;59.80;;;;;;;18.71;100.00;100474.25;4943817;28;20644;-90
2021/07/13 05:42:45;;;;;;;89.60;58.85;;;;;;;18.67;100.00;100471.16;4947637;28;20039;-90
2021/07/13 05:45:11;;;;;;;95.53;62.70;;;;;;;18.66;100.00;100471.38;4947515;28;20086;-92
2021/07/13 05:47:36;;;;;;;96.93;62.55;;;;;;;18.63;100.00;100472.66;4946108;28;20051;-90
2021/07/13 05:50:07;;;;;;;96.82;64.65;;;;;;;18.66;100.00;100474.09;4946419;28;20097;-90
2021/07/13 05:52:33;;;;;;;101.30;65.32;;;;;;;18.70;100.00;100483.44;4946157;28;20059;-91
2021/07/13 05:54:58;;;;;;;101.53;61.65;;;;;;;18.66;100.00;100483.06;4942743;28;20094;-87
2021/07/13 05:57:24;;;;;;;98.85;61.47;;;;;;;18.58;100.00;100486.09;4934694;28;20051;-91
2021/07/13 05:59:49;;;;;;;91.47;58.95;;;;;;;18.56;100.00;100482.78;4942885;28;20055;-90
2021/07/13 06:02:14;;;;;;;98.53;62.42;;;;;;;18.58;100.00;100487.97;4941116;28;20102;-91
2021/07/13 06:04:40;;;;;;;101.90;65.53;;;;;;;18.62;100.00;100481.88;4942807;28;20047;-89
2021/07/13 06:07:05;;;;;;;102.85;65.63;;;;;;;18.62;100.00;100486.47;4943164;28;20118;-93
2021/07/13 06:09:31;;;;;;;100.78;66.50;;;;;;;18.66;100.00;100488.50;4942501;28;20051;-91
2021/07/13 06:11:57;;;;;;;103.68;65.20;;;;;;;18.62;100.00;100490.03;4941508;28;20039;-92
2021/07/13 06:14:23;;;;;;;105.40;62.80;;;;;;;18.60;100.00;100489.41;4942395;28;20058;-92
2021/07/13 06:16:49;;;;;;;103.65;62.42;;;;;;;18.55;100.00;100486.53;4943619;28;20107;-94
2021/07/13 06:19:15;;;;;;;104.85;66.38;;;;;;;18.60;100.00;100489.41;4943660;28;20138;-88
2021/07/13 06:21:40;;;;;;;100.57;64.60;;;;;;;18.63;100.00;100496.28;4943248;28;20506;-92
2021/07/13 06:24:06;;;;;;;104.50;63.42;;;;;;;18.62;100.00;100498.19;4940809;28;20055;-90
2021/07/13 06:26:32;;;;;;;98.93;65.80;;;;;;;18.62;100.00;100498.19;4939348;28;20556;-88
2021/07/13 06:28:57;;;;;;;103.28;64.13;;;;;;;18.60;100.00;100499.47;4939893;28;20134;-92
2021/07/13 06:31:23;;;;;;;106.05;66.05;;;;;;;18.58;100.00;100504.28;4943292;28;20073;-92
2021/07/13 06:33:48;;;;;;;105.28;64.45;;;;;;;18.59;100.00;100504.06;4942133;28;20413;-94
2021/07/13 06:36:14;;;;;;;107.15;67.43;;;;;;;18.59;100.00;100504.06;4941875;28;20126;-90
2021/07/13 06:38:39;;;;;;;108.43;67.60;;;;;;;18.61;100.00;100501.94;4943194;28;20510;-87
2021/07/13 06:41:05;;;;;;;104.45;67.38;;;;;;;18.64;100.00;100501.50;4930616;28;20056;-93
2021/07/13 06:43:30;;;;;;;105.22;66.88;;;;;;;18.58;100.00;100502.38;4945499;28;20063;-91
2021/07/13 06:45:56;;;;;;;109.38;66.65;;;;;;;18.62;100.00;100513.66;4940182;28;20468;-91
2021/07/13 06:48:23;;;;;;;113.63;68.97;;;;;;;18.65;100.00;100505.88;4942257;28;20039;-91
2021/07/13 06:50:49;;;;;;;110.53;68.85;;;;;;;18.63;100.00;100499.84;4937161;28;20055;-91
2021/07/13 06:53:14;;;;;;;110.03;67.25;;;;;;;18.66;100.00;100504.81;4940600;28;20681;-90
2021/07/13 06:55:40;;;;;;;116.40;71.13;;;;;;;18.67;100.00;100511.94;4944467;28;20483;-87
2021/07/13 06:58:05;;;;;;;106.18;67.57;;;;;;;18.67;100.00;100511.06;4945664;28;20058;-91
2021/07/13 07:00:30;;;;;;;113.22;69.97;;;;;;;18.64;100.00;100517.81;4947364;28;20085;-92
2021/07/13 07:02:55;;;;;;;114.15;68.45;;;;;;;18.68;100.00;100510.88;4944813;28;20050;-92
2021/07/13 07:05:21;;;;;;;118.65;82.05;;;;;;;18.72;100.00;100506.63;4944217;28;20034;-91
2021/07/13 07:07:48;;;;;;;117.88;74.07;;;;;;;18.71;100.00;100507.69;4946543;28;20071;-91
2021/07/13 07:10:15;;;;;;;113.82;73.68;;;;;;;18.72;100.00;100509.34;4945474;28;20065;-91
2021/07/13 07:12:42;;;;;;;113.75;73.15;;;;;;;18.74;100.00;100508.34;4942048;28;20494;-86
2021/07/13 07:15:08;;;;;;;121.20;76.35;;;;;;;18.72;100.00;100509.34;4939960;28;20044;-87
2021/07/13 07:17:44;;;;;;;116.50;81.85;;;;;;;18.82;100.00;100510.78;4939248;28;20117;-92
2021/07/13 07:20:10;;;;;;;118.53;74.70;;;;;;;18.83;100.00;100515.16;4939653;28;20063;-91
2021/07/13 07:22:36;;;;;;;111.10;72.97;;;;;;;18.89;100.00;100516.97;4931489;28;20050;-88
2021/07/13 07:25:01;;;;;;;117.43;74.35;;;;;;;18.90;100.00;100518.59;4937901;28;20506;-91
2021/07/13 07:27:27;;;;;;;113.10;70.88;;;;;;;18.92;100.00;100519.22;4941573;28;20337;-89
2021/07/13 07:29:52;;;;;;;110.10;73.78;;;;;;;18.93;100.00;100515.44;4944802;28;20150;-93
2021/07/13 07:32:17;;;;;;;119.18;74.55;;;;;;;18.98;100.00;100512.88;4940772;28;20051;-91
2021/07/13 07:34:43;;;;;;;111.55;72.90;;;;;;;18.97;100.00;100513.13;4944339;28;20074;-90
2021/07/13 07:37:08;;;;;;;110.93;73.63;;;;;;;18.99;100.00;100516.41;4940402;28;20058;-93
2021/07/13 07:39:34;;;;;;;110.95;73.18;;;;;;;18.98;100.00;100512.06;4940904;28;20047;-90
2021/07/13 07:41:59;;;;;;;112.10;72.47;;;;;;;18.99;100.00;100509.13;4943134;28;20143;-89
2021/07/13 07:44:24;;;;;;;106.72;72.88;;;;;;;18.98;100.00;100510.16;4941892;28;20088;-90
2021/07/13 07:46:51;;;;;;;105.72;71.03;;;;;;;18.97;100.00;100507.69;4943751;28;20047;-90
2021/07/13 07:49:17;;;;;;;106.82;71.10;;;;;;;18.96;100.00;100509.56;4940549;28;20138;-87
2021/07/13 07:51:42;;;;;;;102.93;69.10;;;;;;;19.02;100.00;100507.81;4941453;28;20066;-89
2021/07/13 07:54:10;;;;;;;97.75;65.82;;;;;;;19.05;100.00;100508.22;4942209;28;20043;-91
2021/07/13 07:56:35;;;;;;;90.78;61.72;;;;;;;19.09;100.00;100506.69;4944297;28;20051;-91
2021/07/13 07:59:02;;;;;;;92.40;60.10;;;;;;;19.06;100.00;100512.56;4945656;28;20520;-89
2021/07/13 08:01:28;;;;;;;95.80;63.47;;;;;;;19.03;100.00;100513.03;4931009;28;20056;-88
2021/07/13 08:03:53;;;;;;;86.32;58.42;;;;;;;19.03;100.00;100504.88;4939933;28;20300;-88
2021/07/13 08:06:18;;;;;;;89.90;60.85;;;;;;;19.02;100.00;100499.66;4947394;28;20537;-89
2021/07/13 08:08:44;;;;;;;100.72;75.68;;;;;;;19.02;100.00;100495.06;4950527;28;20043;-88
2021/07/13 08:11:10;;;;;;;128.50;96.30;;;;;;;19.05;100.00;100491.88;4948358;28;20486;-91
2021/07/13 08:13:36;;;;;;;121.72;88.82;;;;;;;19.08;100.00;100488.72;4942717;28;20043;-89
2021/07/13 08:16:02;;;;;;;108.68;73.75;;;;;;;19.07;100.00;100491.66;4943206;28;20363;-91
2021/07/13 08:18:27;;;;;;;107.18;71.40;;;;;;;19.12;100.00;100498.06;4942616;28;20115;-89
2021/07/13 08:20:53;;;;;;;103.57;67.88;;;;;;;19.16;100.00;100488.41;4941541;28;20466;-87
2021/07/13 08:23:18;;;;;;;98.53;64.90;;;;;;;19.19;100.00;100487.13;4941365;28;20079;-89
2021/07/13 08:25:43;;;;;;;120.50;73.07;;;;;;;19.22;100.00;100485.81;4941611;28;20106;-86
2021/07/13 08:28:09;;;;;;;116.25;76.72;;;;;;;19.22;100.00;100483.94;4940842;28;20051;-87
2021/07/13 08:30:34;;;;;;;109.55;73.30;;;;;;;19.28;100.00;100490.38;4943137;28;20063;-90
2021/07/13 08:33:00;;;;;;;114.07;74.82;;;;;;;19.31;100.00;100489.91;4939958;28;20059;-90
2021/07/13 08:35:25;;;;;;;117.68;73.88;;;;;;;19.37;100.00;100483.53;4938398;28;20459;-89
2021/07/13 08:37:51;;;;;;;116.97;77.60;;;;;;;19.37;100.00;100488.97;4945967;28;20055;-86
2021/07/13 08:40:17;;;;;;;122.80;76.50;;;;;;;19.46;100.00;100492.22;4946216;28;21914;-90
2021/07/13 08:42:44;;;;;;;108.78;71.47;;;;;;;19.45;100.00;100491.38;4946694;28;20048;-86
2021/07/13 08:45:15;;;;;;;114.05;73.60;;;;;;;19.46;100.00;100498.47;4943383;28;20078;-88
2021/07/13 08:47:43;;;;;;;114.25;73.03;;;;;;;19.50;100.00;100502.41;4943603;28;20059;-87
2021/07/13 08:50:11;;;;;;;123.15;77.90;;;;;;;19.54;100.00;100500.06;4939817;28;20058;-88
2021/07/13 08:52:37;;;;;;;116.55;76.00;;;;;;;19.55;100.00;100499.81;4940146;28;20050;-88
2021/07/13 08:55:05;;;;;;;116.85;73.03;;;;;;;19.55;100.00;100504.44;4943714;28;20047;-90
2021/07/13 08:57:31;;;;;;;116.05;76.05;;;;;;;19.62;100.00;100497.00;4943612;28;20066;-88
2021/07/13 08:59:57;;;;;;;116.50;75.68;;;;;;;19.61;100.00;100501.63;4944778;28;20498;-86
2021/07/13 09:02:22;;;;;;;105.88;68.97;;;;;;;19.65;100.00;100506.59;4938753;29;20059;-87
2021/07/13 09:04:47;;;;;;;103.50;69.60;;;;;;;19.73;100.00;100498.13;4940484;28;20055;-88
2021/07/13 09:07:17;;;;;;;94.65;66.93;;;;;;;19.79;100.00;100499.94;4942744;28;20051;-89
2021/07/13 09:09:47;;;;;;;97.03;66.97;;;;;;;19.82;100.00;100496.75;4942864;28;20130;-88
2021/07/13 09:12:17;;;;;;;93.57;65.40;;;;;;;19.82;100.00;100499.47;4942046;28;20146;-86
2021/07/13 09:15:04;;;;;;;101.78;69.15;;;;;;;19.82;100.00;100513.94;4944742;28;20560;-87
2021/07/13 09:17:32;;;;;;;95.80;66.20;;;;;;;19.87;100.00;100507.78;4952025;28;20106;-88
2021/07/13 09:19:58;;;;;;;93.10;64.30;;;;;;;19.86;100.00;100514.28;4939101;28;20047;-87
2021/07/13 09:22:23;;;;;;;90.40;63.63;;;;;;;19.89;100.00;100508.38;4943956;28;20050;-88
2021/07/13 09:24:49;;;;;;;85.07;61.92;;;;;;;19.90;100.00;100515.47;4943120;28;20391;-87
2021/07/13 09:27:17;;;;;;;78.30;58.25;;;;;;;19.90;100.00;100517.38;4943520;28;20051;-86
2021/07/13 09:29:48;;;;;;;87.65;60.55;;;;;;;19.89;100.00;100516.53;4944252;28;20130;-87
2021/07/13 09:32:25;;;;;;;77.68;56.00;;;;;;;19.96;100.00;100509.09;4942142;28;20059;-88
2021/07/13 09:34:52;;;;;;;81.97;59.85;;;;;;;19.93;100.00;100514.19;4943274;28;20487;-88
2021/07/13 09:37:47;;;;;;;80.40;59.13;;;;;;;19.98;100.00;100512.41;4942975;28;20063;-87
2021/07/13 09:40:18;;;;;;;79.97;57.83;;;;;;;20.03;100.00;100509.00;4954803;28;20035;-88
2021/07/13 09:42:51;;;;;;;82.15;59.30;;;;;;;20.11;100.00;100507.81;4940189;28;20047;-87
2021/07/13 09:45:24;;;;;;;79.55;58.88;;;;;;;20.20;100.00;100506.44;4941907;28;20510;-87
2021/07/13 09:47:55;;;;;;;75.65;57.78;;;;;;;20.24;100.00;100507.63;4942463;28;20048;-88
2021/07/13 09:50:42;;;;;;;67.82;52.88;;;;;;;20.17;100.00;100509.59;4941558;28;20398;-89
2021/07/13 09:53:16;;;;;;;76.68;56.67;;;;;;;20.18;100.00;100511.28;4938950;28;20070;-89
2021/07/13 09:55:43;;;;;;;75.43;54.42;;;;;;;20.31;100.00;100508.31;4945380;28;20058;-90
2021/07/13 09:58:13;;;;;;;73.00;53.53;;;;;;;20.32;100.00;100511.91;4945779;28;20043;-88
2021/07/13 10:00:40;;;;;;;61.78;47.78;;;;;;;20.35;100.00;100516.88;4943635;28;20055;-90
2021/07/13 10:03:07;;;;;;;61.05;44.83;;;;;;;20.41;100.00;100505.03;4939690;28;20051;-88
2021/07/13 10:05:34;;;;;;;43.78;33.90;;;;;;;20.41;100.00;100505.03;4943013;28;20047;-89
2021/07/13 10:08:01;;;;;;;35.63;29.73;;;;;;;20.48;100.00;100509.31;4944126;28;20047;-89
2021/07/13 10:10:27;;;;;;;28.85;24.30;;;;;;;20.54;100.00;100499.34;4941666;28;20084;-90
2021/07/13 10:12:56;;;;;;;25.08;21.65;;;;;;;20.51;100.00;100510.69;4924515;29;20094;-90
2021/07/13 10:15:21;;;;;;;;;;;;;;;20.54;100.00;100507.53;4940354;28;20086;-89
2021/07/13 10:17:47;;;;;;;25.98;22.20;;;;;;;20.55;100.00;100511.94;4944111;28;20568;-88
2021/07/13 10:20:13;;;;;;;27.83;23.55;;;;;;;20.57;100.00;100508.97;4941576;28;20114;-89
2021/07/13 10:22:42;;;;;;;29.38;24.55;;;;;;;20.58;100.00;100508.75;4942866;28;20142;-90
2021/07/13 10:25:08;;;;;;;32.00;26.00;;;;;;;20.62;100.00;100509.09;4942377;28;20130;-87
2021/07/13 10:27:36;;;;;;;33.20;27.30;;;;;;;20.63;100.00;100499.84;4941421;28;20047;-89
2021/07/13 10:30:09;;;;;;;37.58;31.90;;;;;;;20.66;100.00;100504.84;4944344;28;20063;-91
2021/07/13 10:32:41;;;;;;;37.58;31.10;;;;;;;20.65;100.00;100506.72;4942859;28;20429;-88
2021/07/13 10:35:24;;;;;;;39.97;32.45;;;;;;;20.66;100.00;100511.09;4940231;28;20046;-89
2021/07/13 10:38:09;;;;;;;41.58;32.80;;;;;;;20.65;100.00;100495.81;4941664;28;20062;-90
2021/07/13 10:40:41;;;;;;;38.92;32.70;;;;;;;20.75;100.00;100505.31;4941938;28;20058;-90
2021/07/13 10:43:18;;;;;;;39.72;32.97;;;;;;;20.71;100.00;100503.06;4941127;28;20055;-90
2021/07/13 10:45:44;;;;;;;44.08;36.15;;;;;;;20.76;100.00;100509.69;4942162;28;20097;-90
2021/07/13 10:48:14;;;;;;;41.35;35.60;;;;;;;20.80;100.00;100503.53;4942349;28;20133;-88
2021/07/13 10:50:39;;;;;;;41.83;35.42;;;;;;;20.88;100.00;100505.84;4931377;28;20186;-87
2021/07/13 10:53:15;;;;;;;47.30;37.22;;;;;;;20.97;100.00;100506.31;4943287;28;20736;-90
2021/07/13 10:55:40;;;;;;;40.80;35.03;;;;;;;20.92;100.00;100506.22;4930777;28;20415;-90
2021/07/13 10:58:09;;;;;;;41.17;35.92;;;;;;;20.96;100.00;100501.94;4942288;28;20059;-90
2021/07/13 11:00:59;;;;;;;43.67;36.23;;;;;;;21.06;100.00;100510.34;4940576;28;20051;-87
2021/07/13 11:03:30;;;;;;;39.30;34.15;;;;;;;21.07;100.00;100503.00;4941581;28;20877;-89
2021/07/13 11:06:06;;;;;;;36.67;32.13;;;;;;;21.10;100.00;100507.97;4942853;28;20051;-92